Terminal Aerodrome Forecast
Issued by NWS

Home | Current Version | Previous Version | Text Only | Print | Product List | Glossary On
Versions: 1 2 3 4 5 6 7 8 9 10 11 12 13 14 15 16 17 18 19 20 21 22 23 24 25 26 27 28
000
FTUS46 KLOX 301302 AAB
TAFSBP
TAF AMD
KSBP 301302Z 3013/3112 VRB03KT 1SM BR OVC003
     FM301500 VRB03KT 5SM BR OVC005
     FM301600 25006KT P6SM SKC
     FM302000 30010KT P6SM SKC
     FM310400 VRB03KT P6SM SKC
     FM310700 VRB03KT P6SM BKN008
     FM311000 VRB03KT 6SM BR OVC006=

USA.gov is the U.S. government's official web portal to all federal, state and local government web resources and services.